Time;durP1;ratioP1;P1;durP2;ratioP2;P2;SDS_P1;SDS_P2;PMS_P1;PMS_P2;Temp;Humidity;BMP_temperature;BMP_pressure;BME280_temperature;BME280_humidity;BME280_pressure;Samples;Min_cycle;Max_cycle;Signal;HPM_P1;HPM_P2
2022/03/18 00:01:22;;;;;;;1999.90;999.90;;;4.00;99.90;;;;;;5056169;28;20458;-69
2022/03/18 00:03:48;;;;;;;1999.90;999.90;;;3.90;99.90;;;;;;5056022;28;20454;-69
2022/03/18 00:06:17;;;;;;;1999.90;999.90;;;3.90;99.90;;;;;;5069035;28;20446;-69
2022/03/18 00:08:46;;;;;;;1999.90;999.90;;;4.00;99.90;;;;;;5075847;28;20465;-69
2022/03/18 00:11:14;;;;;;;1999.90;999.90;;;4.10;99.90;;;;;;5063548;28;20533;-70
2022/03/18 00:13:40;;;;;;;1999.90;999.90;;;4.00;99.90;;;;;;5055796;28;20450;-69
2022/03/18 00:16:07;;;;;;;1999.90;999.90;;;4.00;99.90;;;;;;5056378;28;20450;-68
2022/03/18 00:18:34;;;;;;;1999.90;999.90;;;4.00;99.90;;;;;;5061078;28;20485;-69
2022/03/18 00:21:00;;;;;;;1999.90;999.90;;;4.00;99.90;;;;;;5075701;28;20499;-69
2022/03/18 00:23:28;;;;;;;1999.90;999.90;;;4.00;99.90;;;;;;5070825;28;20480;-69
2022/03/18 00:25:56;;;;;;;1999.90;999.90;;;4.00;99.90;;;;;;5055614;28;20502;-69
2022/03/18 00:28:23;;;;;;;1999.90;999.90;;;4.00;99.90;;;;;;5054967;28;20528;-69
2022/03/18 00:30:49;;;;;;;1999.90;999.90;;;4.00;99.90;;;;;;5055063;28;20508;-69
2022/03/18 00:33:16;;;;;;;1999.90;999.90;;;4.00;99.90;;;;;;5057903;28;20496;-69
2022/03/18 00:35:43;;;;;;;1999.90;999.90;;;4.00;99.90;;;;;;5076056;28;20496;-69
2022/03/18 00:38:10;;;;;;;1999.90;999.90;;;4.00;99.90;;;;;;5074232;28;20492;-69
2022/03/18 00:40:37;;;;;;;1999.90;999.90;;;4.00;99.90;;;;;;5055276;28;21210;-69
2022/03/18 00:43:05;;;;;;;1999.90;999.90;;;4.00;99.90;;;;;;5054095;28;20881;-69
2022/03/18 00:45:32;;;;;;;1999.90;999.90;;;4.00;99.90;;;;;;5074774;28;20461;-69
2022/03/18 00:53:28;;;;;;;1999.90;999.90;;;3.90;99.90;;;;;;5072315;28;20448;-70
2022/03/18 00:55:54;;;;;;;1999.90;999.90;;;3.80;99.90;;;;;;5067367;28;20446;-69
2022/03/18 00:58:22;;;;;;;1999.90;999.90;;;3.80;99.90;;;;;;5083018;22;20513;-68
2022/03/18 01:00:49;;;;;;;1999.90;999.90;;;3.80;99.90;;;;;;5069881;28;20499;-68
2022/03/18 01:03:16;;;;;;;1999.90;999.90;;;3.80;99.90;;;;;;5070501;28;20937;-68
2022/03/18 01:05:42;;;;;;;1999.90;999.90;;;3.80;99.90;;;;;;5070969;28;20441;-68
2022/03/18 01:08:09;;;;;;;1999.90;999.90;;;3.70;99.90;;;;;;5064114;28;20462;-69
2022/03/18 01:10:36;;;;;;;1999.90;999.90;;;3.70;99.90;;;;;;5050551;28;20442;-67
2022/03/18 01:13:03;;;;;;;1999.90;999.90;;;3.60;99.90;;;;;;5050650;28;20818;-68
2022/03/18 01:15:31;;;;;;;1999.90;999.90;;;3.60;99.90;;;;;;5050281;28;20492;-68
2022/03/18 01:17:58;;;;;;;1999.90;999.90;;;3.60;99.90;;;;;;5049470;28;21043;-68
2022/03/18 01:20:24;;;;;;;1999.90;999.90;;;3.50;99.90;;;;;;5049362;28;20446;-68
2022/03/18 01:22:51;;;;;;;1999.90;999.90;;;3.50;99.90;;;;;;5048671;28;20439;-69
2022/03/18 01:25:18;;;;;;;1999.90;999.90;;;3.40;99.90;;;;;;5047942;28;20451;-68
2022/03/18 01:27:45;;;;;;;1999.90;999.90;;;3.30;99.90;;;;;;5047836;28;20516;-68
2022/03/18 01:30:13;;;;;;;1999.90;999.90;;;3.30;99.90;;;;;;5048668;28;20458;-66
2022/03/18 01:32:42;;;;;;;1999.90;999.90;;;3.40;99.90;;;;;;5051721;28;20454;-69
2022/03/18 01:35:10;;;;;;;1999.90;999.90;;;3.40;99.90;;;;;;5051376;28;21054;-69
2022/03/18 01:37:36;;;;;;;1999.90;999.90;;;3.40;99.90;;;;;;5051743;28;21068;-68
2022/03/18 01:40:04;;;;;;;1999.90;999.90;;;3.40;99.90;;;;;;5053304;28;20832;-69
2022/03/18 01:42:30;;;;;;;1999.90;999.90;;;3.50;99.90;;;;;;5052115;28;20939;-68
2022/03/18 01:44:57;;;;;;;1999.90;999.90;;;3.50;99.90;;;;;;5051767;28;20490;-67
2022/03/18 01:47:24;;;;;;;1999.90;999.90;;;3.50;99.90;;;;;;5049928;28;20446;-68
2022/03/18 01:49:53;;;;;;;1999.90;999.90;;;3.50;99.90;;;;;;5049516;28;20520;-69
2022/03/18 01:52:20;;;;;;;1999.90;999.90;;;3.50;99.90;;;;;;5049173;28;20473;-69
2022/03/18 01:54:47;;;;;;;1999.90;999.90;;;3.50;99.90;;;;;;5050016;28;20450;-69
2022/03/18 01:57:18;;;;;;;1999.90;999.90;;;3.50;99.90;;;;;;5049462;28;20474;-68
2022/03/18 01:59:45;;;;;;;1999.90;999.90;;;3.40;99.90;;;;;;5048785;28;20474;-67
2022/03/18 02:02:11;;;;;;;1999.90;999.90;;;3.40;99.90;;;;;;5048980;28;20500;-68
2022/03/18 02:04:38;;;;;;;1999.90;999.90;;;3.50;99.90;;;;;;5049023;28;20492;-69
2022/03/18 02:07:07;;;;;;;1999.90;999.90;;;3.40;99.90;;;;;;5049170;28;20977;-68
2022/03/18 02:09:33;;;;;;;1999.90;999.90;;;3.40;99.90;;;;;;5048187;28;20474;-68
2022/03/18 02:12:02;;;;;;;1999.90;999.90;;;3.50;99.90;;;;;;5049025;28;20447;-68
2022/03/18 02:14:37;;;;;;;1999.90;999.90;;;3.50;99.90;;;;;;5049131;28;20450;-68
2022/03/18 02:17:05;;;;;;;1999.90;999.90;;;3.60;99.90;;;;;;5048840;28;20449;-68
2022/03/18 02:19:33;;;;;;;1999.90;999.90;;;3.50;99.90;;;;;;5048605;28;20523;-68
2022/03/18 02:21:59;;;;;;;1999.90;999.90;;;3.50;99.90;;;;;;5049004;28;21048;-68
2022/03/18 02:24:27;;;;;;;1999.90;999.90;;;3.30;99.90;;;;;;5047583;28;20458;-68
2022/03/18 02:26:55;;;;;;;1999.90;999.90;;;3.20;99.90;;;;;;5048260;28;20504;-68
2022/03/18 02:29:24;;;;;;;1999.90;999.90;;;3.20;99.90;;;;;;5047904;28;20462;-68
2022/03/18 02:31:51;;;;;;;1999.90;999.90;;;3.10;99.90;;;;;;5048305;28;20533;-68
2022/03/18 02:34:18;;;;;;;1999.90;999.90;;;3.10;99.90;;;;;;5048126;28;20454;-68
2022/03/18 02:36:45;;;;;;;1999.90;999.90;;;3.00;99.90;;;;;;5048531;28;20466;-68
2022/03/18 02:39:13;;;;;;;1999.90;999.90;;;3.00;99.90;;;;;;5047884;28;20489;-69
2022/03/18 02:41:41;;;;;;;1999.90;999.90;;;3.10;99.90;;;;;;5048245;28;20450;-68
2022/03/18 02:44:08;;;;;;;1999.90;999.90;;;3.10;99.90;;;;;;5047871;28;20492;-68
2022/03/18 02:46:34;;;;;;;1999.90;999.90;;;3.10;99.90;;;;;;5048662;28;20447;-68
2022/03/18 02:49:01;;;;;;;1999.90;999.90;;;3.10;99.90;;;;;;5048986;28;20455;-69
2022/03/18 02:51:29;;;;;;;1999.90;999.90;;;3.10;99.90;;;;;;5051839;28;20450;-69
2022/03/18 02:53:56;;;;;;;1999.90;999.90;;;3.10;99.90;;;;;;5051618;28;20450;-67
2022/03/18 02:56:23;;;;;;;1999.90;999.90;;;3.10;99.90;;;;;;5050571;28;20442;-68
2022/03/18 02:58:52;;;;;;;1999.90;999.90;;;3.10;99.90;;;;;;5048447;28;20513;-68
2022/03/18 03:01:19;;;;;;;1999.90;999.90;;;3.00;99.90;;;;;;5051145;28;20450;-69
2022/03/18 03:03:46;;;;;;;1999.90;999.90;;;3.10;99.90;;;;;;5052041;28;20499;-69
2022/03/18 03:08:57;;;;;;;1999.90;999.90;;;3.10;99.90;;;;;;5031656;28;20434;-68
2022/03/18 03:11:24;;;;;;;1999.90;999.90;;;3.00;99.90;;;;;;5031445;28;20857;-68
2022/03/18 03:13:52;;;;;;;1999.90;999.90;;;3.00;99.90;;;;;;5046102;28;20450;-68
2022/03/18 03:16:19;;;;;;;1999.90;999.90;;;3.10;99.90;;;;;;5050123;28;22103;-68
2022/03/18 03:18:46;;;;;;;1999.90;999.90;;;3.10;99.90;;;;;;5051884;28;22095;-68
2022/03/18 03:21:13;;;;;;;1999.90;999.90;;;3.10;99.90;;;;;;5051765;28;20500;-69
2022/03/18 03:23:40;;;;;;;1999.90;999.90;;;3.10;99.90;;;;;;5051998;28;21079;-68
2022/03/18 03:26:06;;;;;;;1999.90;999.90;;;3.10;99.90;;;;;;5051549;28;20954;-69
2022/03/18 03:28:33;;;;;;;1999.90;999.90;;;3.10;99.90;;;;;;5052343;28;20511;-68
2022/03/18 03:31:01;;;;;;;1999.90;999.90;;;3.10;99.90;;;;;;5054639;28;20447;-68
2022/03/18 03:33:28;;;;;;;1999.90;999.90;;;3.10;99.90;;;;;;5055436;28;20450;-69
2022/03/18 03:35:55;;;;;;;1999.90;999.90;;;3.10;99.90;;;;;;5054868;28;20500;-68
2022/03/18 03:38:23;;;;;;;1999.90;999.90;;;3.10;99.90;;;;;;5052228;28;20478;-68
2022/03/18 03:40:50;;;;;;;1999.90;999.90;;;3.20;99.90;;;;;;5051161;28;20512;-68
2022/03/18 03:43:17;;;;;;;1999.90;999.90;;;3.20;99.90;;;;;;5050722;28;20519;-68
2022/03/18 03:45:44;;;;;;;1999.90;999.90;;;3.10;99.90;;;;;;5050701;28;20442;-68
2022/03/18 03:48:12;;;;;;;1999.90;999.90;;;3.10;99.90;;;;;;5051859;28;20474;-68
2022/03/18 03:50:40;;;;;;;1999.90;999.90;;;3.10;99.90;;;;;;5049940;28;20449;-68
2022/03/18 03:53:07;;;;;;;1999.90;999.90;;;3.10;99.90;;;;;;5051295;28;20824;-68
2022/03/18 03:55:38;;;;;;;1999.90;999.90;;;3.00;99.90;;;;;;5050497;28;22203;-68
2022/03/18 03:58:06;;;;;;;1999.90;999.90;;;2.90;99.90;;;;;;5051108;28;20488;-67
2022/03/18 04:00:32;;;;;;;1999.90;999.90;;;2.80;99.90;;;;;;5050795;28;20448;-68
2022/03/18 04:02:59;;;;;;;1999.90;999.90;;;2.70;99.90;;;;;;5050942;28;20454;-68
2022/03/18 04:05:27;;;;;;;1999.90;999.90;;;2.70;99.90;;;;;;5051703;28;20492;-68
2022/03/18 04:07:53;;;;;;;1999.90;999.90;;;2.60;99.90;;;;;;5050980;28;20463;-69
2022/03/18 04:10:20;;;;;;;1999.90;999.90;;;2.60;99.90;;;;;;5050605;28;20950;-68
2022/03/18 04:12:47;;;;;;;1999.90;999.90;;;2.70;99.90;;;;;;5050923;28;20508;-68
2022/03/18 04:15:13;;;;;;;1999.90;999.90;;;2.50;99.90;;;;;;5051707;28;20450;-69
2022/03/18 04:17:41;;;;;;;1999.90;999.90;;;2.40;99.90;;;;;;5050330;28;20449;-69
2022/03/18 04:20:10;;;;;;;1999.90;999.90;;;2.40;99.90;;;;;;5049646;28;20952;-67
2022/03/18 04:22:39;;;;;;;1999.90;999.90;;;2.40;99.90;;;;;;5050734;28;20541;-68
2022/03/18 04:25:07;;;;;;;1999.90;999.90;;;2.30;99.90;;;;;;5050728;28;20492;-68
2022/03/18 04:27:34;;;;;;;1999.90;999.90;;;2.20;99.90;;;;;;5050798;28;20450;-68
2022/03/18 04:30:01;;;;;;;1999.90;999.90;;;2.10;99.90;;;;;;5050664;28;20443;-68
2022/03/18 04:32:28;;;;;;;1999.90;999.90;;;2.30;99.90;;;;;;5050442;28;20519;-68
2022/03/18 04:34:54;;;;;;;1999.90;999.90;;;2.20;99.90;;;;;;5049650;28;21012;-69
2022/03/18 04:37:21;;;;;;;1999.90;999.90;;;2.10;99.90;;;;;;5051227;28;20450;-68
2022/03/18 04:39:49;;;;;;;1999.90;999.90;;;2.20;99.90;;;;;;5050447;28;20474;-68
2022/03/18 04:42:15;;;;;;;1999.90;999.90;;;2.20;99.90;;;;;;5049265;28;20442;-68
2022/03/18 04:44:42;;;;;;;1999.90;999.90;;;2.20;99.90;;;;;;5050019;28;20443;-68
2022/03/18 04:47:09;;;;;;;1999.90;999.90;;;2.20;99.90;;;;;;5050652;28;20453;-68
2022/03/18 04:49:35;;;;;;;1999.90;999.90;;;2.20;99.90;;;;;;5049379;28;20462;-68
2022/03/18 04:52:02;;;;;;;1999.90;999.90;;;2.10;99.90;;;;;;5050482;28;20516;-69
2022/03/18 04:54:29;;;;;;;1999.90;999.90;;;2.10;99.90;;;;;;5049725;28;20511;-68
2022/03/18 04:59:41;;;;;;;1999.90;999.90;;;2.50;99.90;;;;;;5049581;28;20496;-68
2022/03/18 05:02:10;;;;;;;1999.90;999.90;;;2.10;99.90;;;;;;5049274;28;20446;-68
2022/03/18 05:04:37;;;;;;;1999.90;999.90;;;2.10;99.90;;;;;;5049382;28;20946;-67
2022/03/18 05:07:04;;;;;;;1999.90;999.90;;;2.10;99.90;;;;;;5049509;28;20458;-68
2022/03/18 05:09:31;;;;;;;1999.90;999.90;;;2.10;99.90;;;;;;5050714;28;20458;-68
2022/03/18 05:11:59;;;;;;;1999.90;999.90;;;2.10;99.90;;;;;;5049434;28;20458;-68
2022/03/18 05:14:25;;;;;;;1999.90;999.90;;;2.10;99.90;;;;;;5048954;28;20881;-68
2022/03/18 05:16:52;;;;;;;1999.90;999.90;;;2.00;99.90;;;;;;5047145;28;20450;-68
2022/03/18 05:19:19;;;;;;;1999.90;999.90;;;2.40;99.90;;;;;;5047658;28;20478;-67
2022/03/18 05:21:46;;;;;;;1999.90;999.90;;;2.00;99.90;;;;;;5046885;28;20505;-68
2022/03/18 05:24:12;;;;;;;1999.90;999.90;;;2.00;99.90;;;;;;5049491;28;20446;-68
2022/03/18 05:26:40;;;;;;;1999.90;999.90;;;2.00;99.90;;;;;;5049846;28;20512;-68
2022/03/18 05:29:08;;;;;;;1999.90;999.90;;;2.00;99.90;;;;;;5050061;28;20462;-68
2022/03/18 05:31:35;;;;;;;1999.90;999.90;;;2.00;99.90;;;;;;5047994;28;20492;-68
2022/03/18 05:34:02;;;;;;;1999.90;999.90;;;2.10;99.90;;;;;;5049341;28;20557;-68
2022/03/18 05:36:29;;;;;;;1999.90;999.90;;;2.10;99.90;;;;;;5049181;28;20890;-68
2022/03/18 05:38:56;;;;;;;1999.90;999.90;;;2.00;99.90;;;;;;5048878;28;20485;-68
2022/03/18 05:41:23;;;;;;;1999.90;999.90;;;1.90;99.90;;;;;;5047126;28;20461;-70
2022/03/18 05:43:50;;;;;;;1999.90;999.90;;;1.90;99.90;;;;;;5048408;28;20553;-71
2022/03/18 05:46:18;;;;;;;1999.90;999.90;;;2.00;99.90;;;;;;5042382;28;20461;-71
2022/03/18 05:48:44;;;;;;;1999.90;999.90;;;2.00;99.90;;;;;;5052763;28;20508;-71
2022/03/18 05:51:11;;;;;;;1999.90;999.90;;;2.00;99.90;;;;;;5051761;28;20458;-71
2022/03/18 05:53:38;;;;;;;1999.90;999.90;;;2.10;99.90;;;;;;5052753;28;20545;-70
2022/03/18 05:58:49;;;;;;;1999.90;999.90;;;2.20;99.90;;;;;;5050920;28;20586;-70
2022/03/18 06:01:17;;;;;;;1999.90;999.90;;;2.20;99.90;;;;;;5048016;28;20903;-70
2022/03/18 06:03:44;;;;;;;1999.90;999.90;;;2.20;99.90;;;;;;5049168;28;20492;-70
2022/03/18 06:06:11;;;;;;;1999.90;999.90;;;2.10;99.90;;;;;;5048541;28;20520;-71
2022/03/18 06:14:05;;;;;;;1999.90;999.90;;;2.30;99.90;;;;;;5044457;28;20948;-71
2022/03/18 06:16:33;;;;;;;1999.90;999.90;;;2.40;99.90;;;;;;5048147;28;20454;-71
2022/03/18 06:18:59;;;;;;;1999.90;999.90;;;2.40;99.90;;;;;;5048608;28;20481;-69
2022/03/18 06:21:26;;;;;;;1999.90;999.90;;;2.40;99.90;;;;;;5048332;28;20442;-70
2022/03/18 06:23:53;;;;;;;1999.90;999.90;;;2.60;99.90;;;;;;5047883;28;21002;-71
2022/03/18 06:26:20;;;;;;;1999.90;999.90;;;2.70;99.90;;;;;;5048459;28;20454;-71
2022/03/18 06:28:46;;;;;;;1999.90;999.90;;;2.70;99.90;;;;;;5048668;28;20852;-71
2022/03/18 06:31:13;;;;;;;1999.90;999.90;;;2.80;99.90;;;;;;5047744;28;20782;-71
2022/03/18 06:33:44;;;;;;;1999.90;999.90;;;2.80;99.90;;;;;;5048390;28;20500;-71
2022/03/18 06:36:11;;;;;;;1999.90;999.90;;;3.00;99.90;;;;;;5048289;28;20497;-71
2022/03/18 06:38:38;;;;;;;1999.90;999.90;;;3.30;99.90;;;;;;5044418;28;21774;-71
2022/03/18 06:41:05;;;;;;;1999.90;999.90;;;3.50;99.90;;;;;;5046579;28;20473;-71
2022/03/18 06:43:32;;;;;;;1999.90;999.90;;;3.60;99.90;;;;;;5046211;28;20454;-70
2022/03/18 06:45:59;;;;;;;1999.90;999.90;;;3.80;99.90;;;;;;5046534;28;20504;-69
2022/03/18 06:48:26;;;;;;;1999.90;999.90;;;4.00;99.90;;;;;;5048050;28;20918;-71
2022/03/18 06:50:54;;;;;;;1999.90;999.90;;;4.40;99.90;;;;;;5050363;28;20450;-71
2022/03/18 06:53:20;;;;;;;1999.90;999.90;;;4.50;99.90;;;;;;5052294;28;20523;-71
2022/03/18 06:55:47;;;;;;;1999.90;999.90;;;4.80;99.90;;;;;;5053920;28;20508;-72
2022/03/18 06:58:14;;;;;;;1999.90;999.90;;;5.10;99.90;;;;;;5053444;28;20520;-70
2022/03/18 07:00:40;;;;;;;1999.90;999.90;;;4.80;99.90;;;;;;5051467;28;20473;-71
2022/03/18 07:03:07;;;;;;;1999.90;999.90;;;5.10;99.90;;;;;;5052826;28;20485;-71
2022/03/18 07:05:34;;;;;;;1999.90;999.90;;;5.40;99.90;;;;;;5054505;28;20946;-71
2022/03/18 07:08:02;;;;;;;1999.90;999.90;;;5.70;99.90;;;;;;5055353;28;21014;-71
2022/03/18 07:10:29;;;;;;;1999.90;999.90;;;5.90;99.90;;;;;;5053430;28;20451;-71
2022/03/18 07:12:55;;;;;;;1999.90;999.90;;;6.20;99.90;;;;;;5054158;28;20462;-71
2022/03/18 07:15:22;;;;;;;1999.90;999.90;;;6.60;99.90;;;;;;5057480;28;20503;-71
2022/03/18 07:17:59;;;;;;;1999.90;999.90;;;6.90;99.90;;;;;;5055524;28;20481;-71
2022/03/18 07:20:26;;;;;;;1999.90;999.90;;;6.70;99.90;;;;;;5052922;28;20499;-72
2022/03/18 07:23:06;;;;;;;1999.90;999.90;;;6.70;99.90;;;;;;5054239;28;20832;-71
2022/03/18 07:25:33;;;;;;;1999.90;999.90;;;6.80;99.90;;;;;;5043289;28;20453;-71
2022/03/18 07:28:00;;;;;;;1999.90;999.90;;;7.10;99.90;;;;;;5055104;28;20462;-71
2022/03/18 07:30:26;;;;;;;1999.90;999.90;;;7.50;99.90;;;;;;5054841;28;21106;-71
2022/03/18 07:32:53;;;;;;;1999.90;999.90;;;7.60;99.90;;;;;;5054824;28;20504;-68
2022/03/18 07:35:20;;;;;;;1999.90;999.90;;;7.90;99.90;;;;;;5055115;28;20467;-69
2022/03/18 07:37:48;;;;;;;1999.90;999.90;;;8.30;99.90;;;;;;5054703;28;20473;-68
2022/03/18 07:40:16;;;;;;;1999.90;999.90;;;8.40;99.90;;;;;;5054085;28;20474;-67
2022/03/18 07:42:44;;;;;;;1999.90;999.90;;;8.40;99.90;;;;;;5055249;28;20438;-69
2022/03/18 07:45:12;;;;;;;1999.90;999.90;;;8.00;99.90;;;;;;5055836;28;20877;-68
2022/03/18 07:47:39;;;;;;;1999.90;999.90;;;8.10;99.90;;;;;;5055324;28;20450;-67
2022/03/18 07:50:07;;;;;;;1999.90;999.90;;;8.30;99.90;;;;;;5054531;28;20827;-67
2022/03/18 07:52:33;;;;;;;1999.90;999.90;;;8.60;99.90;;;;;;5053086;28;20508;-68
2022/03/18 07:55:00;;;;;;;1999.90;999.90;;;8.70;99.90;;;;;;5048174;28;20462;-69
2022/03/18 07:57:28;;;;;;;1999.90;999.90;;;8.20;99.90;;;;;;5044390;28;20992;-67
2022/03/18 07:59:55;;;;;;;1999.90;999.90;;;8.20;99.90;;;;;;5049333;28;20486;-69
2022/03/18 08:02:21;;;;;;;1999.90;999.90;;;8.30;99.90;;;;;;5045305;28;20512;-71
2022/03/18 08:04:51;;;;;;;1999.90;999.90;;;8.20;99.90;;;;;;5051422;28;20967;-69
2022/03/18 08:07:18;;;;;;;1999.90;999.90;;;8.30;99.90;;;;;;5051976;28;20569;-71
2022/03/18 08:09:45;;;;;;;1999.90;999.90;;;8.30;99.90;;;;;;5046502;28;20891;-71
2022/03/18 08:12:12;;;;;;;1999.90;999.90;;;8.60;99.90;;;;;;5036451;28;20454;-67
2022/03/18 08:14:40;;;;;;;1999.90;999.90;;;8.60;99.90;;;;;;5043232;28;20529;-67
2022/03/18 08:17:07;;;;;;;1999.90;999.90;;;8.70;99.90;;;;;;5051186;28;20450;-68
2022/03/18 08:19:34;;;;;;;1999.90;999.90;;;8.80;99.90;;;;;;5035828;28;20491;-68
2022/03/18 08:22:02;;;;;;;1999.90;999.90;;;8.80;99.90;;;;;;5042093;28;20450;-68
2022/03/18 08:24:29;;;;;;;1999.90;999.90;;;8.70;99.90;;;;;;5053176;28;20516;-68
2022/03/18 08:26:55;;;;;;;1999.90;999.90;;;8.80;99.90;;;;;;5053345;28;20449;-68
2022/03/18 08:29:22;;;;;;;1999.90;999.90;;;9.20;99.90;;;;;;5034684;28;20525;-68
2022/03/18 08:31:50;;;;;;;1999.90;999.90;;;9.60;99.90;;;;;;5034386;28;20451;-68
2022/03/18 08:34:16;;;;;;;1999.90;999.90;;;9.80;99.90;;;;;;5034809;28;20508;-69
2022/03/18 08:36:43;;;;;;;1999.90;999.90;;;9.60;99.90;;;;;;5034066;28;20955;-69
2022/03/18 08:39:10;;;;;;;1999.90;999.90;;;9.60;99.90;;;;;;5042780;28;20540;-69
2022/03/18 08:41:36;;;;;;;1999.90;999.90;;;9.90;99.90;;;;;;5054118;28;20537;-69
2022/03/18 08:44:03;;;;;;;1999.90;999.90;;;10.00;99.90;;;;;;5054085;28;20465;-69
2022/03/18 08:46:30;;;;;;;1999.90;999.90;;;10.10;99.90;;;;;;5055115;28;20446;-68
2022/03/18 08:48:58;;;;;;;1999.90;999.90;;;10.40;99.90;;;;;;5054836;28;20458;-69
2022/03/18 08:51:25;;;;;;;1999.90;999.90;;;10.50;99.90;;;;;;5054605;28;20446;-69
2022/03/18 08:53:51;;;;;;;1999.90;999.90;;;10.50;99.90;;;;;;5054585;28;20448;-70
2022/03/18 08:56:18;;;;;;;1999.90;999.90;;;10.40;98.90;;;;;;5053405;28;20500;-69
2022/03/18 08:58:45;;;;;;;1999.90;999.90;;;10.00;99.20;;;;;;5053387;28;20482;-69
2022/03/18 09:01:12;;;;;;;1999.90;999.90;;;10.00;99.90;;;;;;5053023;28;20540;-68
2022/03/18 09:03:38;;;;;;;1999.90;999.90;;;9.90;99.90;;;;;;5053693;28;20450;-69
2022/03/18 09:06:07;;;;;;;1999.90;999.90;;;9.70;99.90;;;;;;5049286;28;20879;-69
2022/03/18 09:08:33;;;;;;;1999.90;999.90;;;9.80;99.90;;;;;;5052097;28;20998;-69
2022/03/18 09:11:00;;;;;;;1999.90;999.90;;;10.00;99.90;;;;;;5052133;28;21003;-67
2022/03/18 09:13:26;;;;;;;1999.90;999.90;;;9.90;99.90;;;;;;5065390;28;20450;-68
2022/03/18 09:15:53;;;;;;;1999.90;999.90;;;10.00;99.90;;;;;;5073373;28;20450;-68
2022/03/18 09:18:21;;;;;;;1999.90;999.90;;;10.20;99.90;;;;;;5042790;28;20894;-69
2022/03/18 09:20:48;;;;;;;1999.90;999.90;;;10.40;99.90;;;;;;5053130;28;20474;-68
2022/03/18 09:23:16;;;;;;;1999.90;999.90;;;10.30;99.70;;;;;;5053737;28;20500;-68
2022/03/18 09:25:43;;;;;;;1999.90;999.90;;;10.00;99.00;;;;;;5053001;28;20482;-68
2022/03/18 09:28:09;;;;;;;1999.90;999.90;;;10.30;99.60;;;;;;5054144;28;20478;-69
2022/03/18 09:30:36;;;;;;;1999.90;999.90;;;10.60;99.30;;;;;;5053646;28;20434;-71
2022/03/18 09:33:03;;;;;;;1999.90;999.90;;;10.80;99.30;;;;;;5052960;28;20496;-71
2022/03/18 09:35:30;;;;;;;1999.90;999.90;;;10.70;98.20;;;;;;5053176;28;20452;-71
2022/03/18 09:37:56;;;;;;;1999.90;999.90;;;10.80;99.40;;;;;;5052822;28;21150;-72
2022/03/18 09:40:24;;;;;;;1999.90;999.90;;;10.80;99.20;;;;;;5052079;28;21043;-71
2022/03/18 09:42:55;;;;;;;1999.90;999.90;;;10.90;98.30;;;;;;5052343;28;20846;-71
2022/03/18 09:45:23;;;;;;;1999.90;999.90;;;10.80;98.60;;;;;;5053098;28;20446;-71
2022/03/18 09:47:51;;;;;;;1999.90;999.90;;;11.10;99.40;;;;;;5052740;28;20485;-71
2022/03/18 09:50:18;;;;;;;1999.90;999.90;;;11.30;98.80;;;;;;5052249;28;20942;-71
2022/03/18 09:52:45;;;;;;;1999.90;999.90;;;11.70;97.90;;;;;;5053143;28;20450;-70
2022/03/18 09:55:12;;;;;;;1999.90;999.90;;;11.70;97.70;;;;;;5052918;28;20435;-71
2022/03/18 09:57:40;;;;;;;1999.90;999.90;;;11.50;97.10;;;;;;5052632;28;20450;-71
2022/03/18 10:00:08;;;;;;;1999.90;999.90;;;11.50;96.30;;;;;;5052166;28;20902;-71
2022/03/18 10:02:34;;;;;;;1999.90;999.90;;;11.30;97.00;;;;;;5052732;28;20453;-71
2022/03/18 10:05:06;;;;;;;1999.90;999.90;;;11.10;97.30;;;;;;5052394;28;20443;-71
2022/03/18 10:07:33;;;;;;;1999.90;999.90;;;10.80;98.60;;;;;;5052363;28;20449;-71
2022/03/18 10:10:05;;;;;;;1999.90;999.90;;;11.10;99.70;;;;;;5051939;28;20465;-69
2022/03/18 10:12:34;;;;;;;1999.90;999.90;;;11.10;97.50;;;;;;5052058;28;20499;-71
2022/03/18 10:15:11;;;;;;;1999.90;999.90;;;10.90;98.00;;;;;;5051948;28;20446;-71
2022/03/18 10:17:40;;;;;;;1999.90;999.90;;;10.90;98.30;;;;;;5049754;28;20459;-68
2022/03/18 10:20:08;;;;;;;1999.90;999.90;;;10.70;97.80;;;;;;5042435;28;20752;-67
2022/03/18 10:22:36;;;;;;;1999.90;999.90;;;10.70;98.20;;;;;;5032569;28;20442;-71
2022/03/18 10:25:04;;;;;;;1999.90;999.90;;;10.90;98.30;;;;;;5037837;28;20459;-71
2022/03/18 10:27:32;;;;;;;1999.90;999.90;;;11.00;98.70;;;;;;5052609;28;20446;-71
2022/03/18 10:29:59;;;;;;;1999.90;999.90;;;11.00;98.30;;;;;;5051680;28;20443;-71
2022/03/18 10:32:28;;;;;;;1999.90;999.90;;;11.10;97.20;;;;;;5051978;28;20868;-71
2022/03/18 10:37:42;;;;;;;1999.90;999.90;;;10.90;96.70;;;;;;5051948;28;20909;-71
2022/03/18 10:40:10;;;;;;;1999.90;999.90;;;11.00;97.70;;;;;;5051605;28;20482;-70
2022/03/18 10:42:37;;;;;;;1999.90;999.90;;;11.30;97.70;;;;;;5051709;28;20479;-71
2022/03/18 10:45:06;;;;;;;1999.90;999.90;;;11.30;97.70;;;;;;5051475;28;20870;-71
2022/03/18 10:47:36;;;;;;;1999.90;999.90;;;11.40;98.30;;;;;;5050343;28;20970;-71
2022/03/18 10:50:24;;;;;;;1999.90;999.90;;;11.40;98.30;;;;;;5051555;28;20438;-71
2022/03/18 10:53:09;;;;;;;1999.90;999.90;;;11.10;97.70;;;;;;5042933;28;20444;-71
2022/03/18 10:55:37;;;;;;;1999.90;999.90;;;11.40;98.50;;;;;;5051243;28;20450;-72
2022/03/18 10:58:07;;;;;;;1999.90;999.90;;;11.60;97.80;;;;;;5052120;28;20482;-72
2022/03/18 11:00:35;;;;;;;1999.90;999.90;;;11.60;97.60;;;;;;5051813;28;20514;-71
2022/03/18 11:03:06;;;;;;;1999.90;999.90;;;11.50;97.30;;;;;;5051854;28;20934;-71
2022/03/18 11:05:34;;;;;;;1999.90;999.90;;;11.80;97.10;;;;;;5052337;28;20431;-72
2022/03/18 11:08:02;;;;;;;1999.90;999.90;;;12.00;97.20;;;;;;5051900;28;21048;-72
2022/03/18 11:13:15;;;;;;;1999.90;999.90;;;12.10;97.90;;;;;;5053405;28;20404;-71
2022/03/18 11:15:45;;;;;;;1999.90;999.90;;;12.10;97.50;;;;;;5052349;28;20938;-72
2022/03/18 11:18:13;;;;;;;1999.90;999.90;;;12.30;97.60;;;;;;5051608;28;20493;-72
2022/03/18 11:20:43;;;;;;;1999.90;999.90;;;12.40;97.90;;;;;;5051528;28;20485;-72
2022/03/18 11:23:16;;;;;;;1999.90;999.90;;;12.40;95.50;;;;;;5051373;28;20451;-71
2022/03/18 11:25:43;;;;;;;1999.90;999.90;;;11.90;95.90;;;;;;5051123;28;20484;-69
2022/03/18 11:28:15;;;;;;;1999.90;999.90;;;11.50;96.90;;;;;;5051533;28;21227;-68
2022/03/18 11:30:43;;;;;;;1999.90;999.90;;;11.40;96.70;;;;;;5051757;28;20442;-68
2022/03/18 11:33:23;;;;;;;1999.90;999.90;;;11.20;95.80;;;;;;5051898;28;20450;-69
2022/03/18 11:36:13;;;;;;;1999.90;999.90;;;11.10;97.10;;;;;;5052784;28;20937;-69
2022/03/18 11:38:56;;;;;;;1999.90;999.90;;;11.40;97.70;;;;;;5035768;28;20471;-71
2022/03/18 11:41:26;;;;;;;1999.90;999.90;;;11.70;97.70;;;;;;5035677;28;20514;-72
2022/03/18 11:43:54;;;;;;;1999.90;999.90;;;11.50;97.50;;;;;;5035359;28;20490;-71
2022/03/18 11:46:27;;;;;;;1999.90;999.90;;;11.60;98.30;;;;;;5035421;28;20485;-72
2022/03/18 11:48:57;;;;;;;1999.90;999.90;;;11.80;98.70;;;;;;5035830;28;20498;-72
2022/03/18 11:51:30;;;;;;;1999.90;999.90;;;11.80;97.70;;;;;;5041750;28;20442;-71
2022/03/18 11:53:59;;;;;;;1999.90;999.90;;;11.80;98.60;;;;;;5055433;28;20442;-71
2022/03/18 11:56:44;;;;;;;1999.90;999.90;;;12.10;98.70;;;;;;5055531;28;20448;-72
2022/03/18 11:59:47;;;;;;;1999.90;999.90;;;12.30;97.80;;;;;;5055219;28;20557;-72
2022/03/18 12:02:14;;;;;;;1999.90;999.90;;;12.30;99.60;;;;;;5054888;28;20478;-71
2022/03/18 12:04:45;;;;;;;1999.90;999.90;;;12.40;96.90;;;;;;5054939;28;20442;-71
2022/03/18 12:07:14;;;;;;;1999.90;999.90;;;12.50;97.90;;;;;;5055211;28;20484;-71
2022/03/18 12:09:55;;;;;;;1999.90;999.90;;;12.50;97.80;;;;;;5054350;28;20474;-72
2022/03/18 12:12:24;;;;;;;1999.90;999.90;;;12.40;96.30;;;;;;5054347;28;20831;-71
2022/03/18 12:14:52;;;;;;;1999.90;999.90;;;12.60;97.00;;;;;;5055019;28;20446;-72
2022/03/18 12:17:19;;;;;;;1999.90;999.90;;;12.60;96.10;;;;;;5054928;28;20454;-72
2022/03/18 12:19:52;;;;;;;1999.90;999.90;;;12.60;97.90;;;;;;5054137;28;20524;-72
2022/03/18 12:22:20;;;;;;;1999.90;999.90;;;12.80;97.40;;;;;;5054180;28;20848;-71
2022/03/18 12:24:48;;;;;;;1999.90;999.90;;;12.80;96.10;;;;;;5055403;28;20450;-72
2022/03/18 12:27:17;;;;;;;1999.90;999.90;;;12.70;96.70;;;;;;5054943;28;20499;-71
2022/03/18 12:29:43;;;;;;;1999.90;999.90;;;12.60;95.20;;;;;;5054843;28;20519;-72
2022/03/18 12:32:10;;;;;;;1999.90;999.90;;;12.40;96.20;;;;;;5054333;28;20438;-72
2022/03/18 12:34:46;;;;;;;1999.90;999.90;;;12.30;97.50;;;;;;5054724;28;20457;-72